sensor_id;sensor_type;location;lat;lon;timestamp;temperature;humidity
64012;DHT22;50211;52.768;12.124;2022-09-28T00:01:13;8.80;99.90
64012;DHT22;50211;52.768;12.124;2022-09-28T00:03:39;8.80;99.90
64012;DHT22;50211;52.768;12.124;2022-09-28T00:06:07;8.80;99.90
64012;DHT22;50211;52.768;12.124;2022-09-28T00:08:34;8.90;99.90
64012;DHT22;50211;52.768;12.124;2022-09-28T00:11:00;8.80;99.90
64012;DHT22;50211;52.768;12.124;2022-09-28T00:13:26;8.90;99.90
64012;DHT22;50211;52.768;12.124;2022-09-28T00:16:10;8.90;99.90
64012;DHT22;50211;52.768;12.124;2022-09-28T00:18:36;8.90;99.90
64012;DHT22;50211;52.768;12.124;2022-09-28T00:21:26;9.00;99.90
64012;DHT22;50211;52.768;12.124;2022-09-28T00:23:59;9.00;99.90
64012;DHT22;50211;52.768;12.124;2022-09-28T00:26:39;9.00;99.90
64012;DHT22;50211;52.768;12.124;2022-09-28T00:29:07;9.00;99.90
64012;DHT22;50211;52.768;12.124;2022-09-28T00:31:33;9.00;99.90
64012;DHT22;50211;52.768;12.124;2022-09-28T00:34:01;9.00;99.90
64012;DHT22;50211;52.768;12.124;2022-09-28T00:36:29;9.00;99.90
64012;DHT22;50211;52.768;12.124;2022-09-28T00:39:01;8.90;99.90
64012;DHT22;50211;52.768;12.124;2022-09-28T00:41:28;9.00;99.90
64012;DHT22;50211;52.768;12.124;2022-09-28T00:47:00;9.00;99.90
64012;DHT22;50211;52.768;12.124;2022-09-28T00:49:46;9.00;99.90
64012;DHT22;50211;52.768;12.124;2022-09-28T00:52:20;9.00;99.90
64012;DHT22;50211;52.768;12.124;2022-09-28T00:54:47;9.10;99.90
64012;DHT22;50211;52.768;12.124;2022-09-28T00:57:13;9.10;99.90
64012;DHT22;50211;52.768;12.124;2022-09-28T00:59:39;9.10;99.90
64012;DHT22;50211;52.768;12.124;2022-09-28T01:02:05;9.20;99.90
64012;DHT22;50211;52.768;12.124;2022-09-28T01:04:33;9.20;99.90
64012;DHT22;50211;52.768;12.124;2022-09-28T01:06:59;9.20;99.90
64012;DHT22;50211;52.768;12.124;2022-09-28T01:09:26;9.20;99.90
64012;DHT22;50211;52.768;12.124;2022-09-28T01:11:54;9.20;99.90
64012;DHT22;50211;52.768;12.124;2022-09-28T01:14:21;9.20;99.90
64012;DHT22;50211;52.768;12.124;2022-09-28T01:17:11;9.10;99.90
64012;DHT22;50211;52.768;12.124;2022-09-28T01:25:15;9.20;99.90
64012;DHT22;50211;52.768;12.124;2022-09-28T01:27:44;9.20;99.90
64012;DHT22;50211;52.768;12.124;2022-09-28T01:30:16;9.10;99.90
64012;DHT22;50211;52.768;12.124;2022-09-28T01:33:07;9.20;99.90
64012;DHT22;50211;52.768;12.124;2022-09-28T01:35:40;9.20;99.90
64012;DHT22;50211;52.768;12.124;2022-09-28T01:38:15;9.20;99.90
64012;DHT22;50211;52.768;12.124;2022-09-28T01:40:44;9.20;99.90
64012;DHT22;50211;52.768;12.124;2022-09-28T01:43:18;9.20;99.90
64012;DHT22;50211;52.768;12.124;2022-09-28T01:45:51;9.20;99.90
64012;DHT22;50211;52.768;12.124;2022-09-28T01:48:30;9.20;99.90
64012;DHT22;50211;52.768;12.124;2022-09-28T01:50:59;9.20;99.90
64012;DHT22;50211;52.768;12.124;2022-09-28T01:53:32;9.20;99.90
64012;DHT22;50211;52.768;12.124;2022-09-28T01:56:08;9.20;99.90
64012;DHT22;50211;52.768;12.124;2022-09-28T01:58:39;9.30;99.90
64012;DHT22;50211;52.768;12.124;2022-09-28T02:01:17;9.30;99.90
64012;DHT22;50211;52.768;12.124;2022-09-28T02:03:55;9.30;99.90
64012;DHT22;50211;52.768;12.124;2022-09-28T02:06:30;9.20;99.90
64012;DHT22;50211;52.768;12.124;2022-09-28T02:09:03;9.30;99.90
64012;DHT22;50211;52.768;12.124;2022-09-28T02:11:32;9.30;99.90
64012;DHT22;50211;52.768;12.124;2022-09-28T02:14:04;9.30;99.90
64012;DHT22;50211;52.768;12.124;2022-09-28T02:16:33;9.30;99.90
64012;DHT22;50211;52.768;12.124;2022-09-28T02:19:00;9.20;99.90
64012;DHT22;50211;52.768;12.124;2022-09-28T02:21:36;9.20;99.90
64012;DHT22;50211;52.768;12.124;2022-09-28T02:24:11;9.20;99.90
64012;DHT22;50211;52.768;12.124;2022-09-28T02:26:41;9.10;99.90
64012;DHT22;50211;52.768;12.124;2022-09-28T02:29:08;9.10;99.90
64012;DHT22;50211;52.768;12.124;2022-09-28T02:31:34;9.10;99.90
64012;DHT22;50211;52.768;12.124;2022-09-28T02:34:00;9.10;99.90
64012;DHT22;50211;52.768;12.124;2022-09-28T02:36:26;9.10;99.90
64012;DHT22;50211;52.768;12.124;2022-09-28T02:38:52;9.10;99.90
64012;DHT22;50211;52.768;12.124;2022-09-28T02:41:41;9.10;99.90
64012;DHT22;50211;52.768;12.124;2022-09-28T02:47:16;9.20;99.90
64012;DHT22;50211;52.768;12.124;2022-09-28T02:49:53;9.20;99.90
64012;DHT22;50211;52.768;12.124;2022-09-28T02:52:25;9.10;99.90
64012;DHT22;50211;52.768;12.124;2022-09-28T02:55:08;9.10;99.90
64012;DHT22;50211;52.768;12.124;2022-09-28T02:57:49;9.10;99.90
64012;DHT22;50211;52.768;12.124;2022-09-28T03:00:23;9.10;99.90
64012;DHT22;50211;52.768;12.124;2022-09-28T03:05:52;9.20;99.90
64012;DHT22;50211;52.768;12.124;2022-09-28T03:11:04;9.10;99.90
64012;DHT22;50211;52.768;12.124;2022-09-28T03:13:33;9.10;99.90
64012;DHT22;50211;52.768;12.124;2022-09-28T03:16:25;9.10;99.90
64012;DHT22;50211;52.768;12.124;2022-09-28T03:18:53;9.10;99.90
64012;DHT22;50211;52.768;12.124;2022-09-28T03:21:18;9.10;99.90
64012;DHT22;50211;52.768;12.124;2022-09-28T03:23:44;9.10;99.90
64012;DHT22;50211;52.768;12.124;2022-09-28T03:26:13;9.10;99.90
64012;DHT22;50211;52.768;12.124;2022-09-28T03:28:39;9.10;99.90
64012;DHT22;50211;52.768;12.124;2022-09-28T03:31:04;9.00;99.90
64012;DHT22;50211;52.768;12.124;2022-09-28T03:33:32;8.90;99.90
64012;DHT22;50211;52.768;12.124;2022-09-28T03:36:00;8.90;99.90
64012;DHT22;50211;52.768;12.124;2022-09-28T03:38:26;8.90;99.90
64012;DHT22;50211;52.768;12.124;2022-09-28T03:40:58;8.80;99.90
64012;DHT22;50211;52.768;12.124;2022-09-28T03:43:25;8.90;99.90
64012;DHT22;50211;52.768;12.124;2022-09-28T03:45:58;8.80;99.90
64012;DHT22;50211;52.768;12.124;2022-09-28T03:48:25;8.80;99.90
64012;DHT22;50211;52.768;12.124;2022-09-28T03:50:55;8.80;99.90
64012;DHT22;50211;52.768;12.124;2022-09-28T03:53:20;8.90;99.90
64012;DHT22;50211;52.768;12.124;2022-09-28T03:55:46;8.90;99.90
64012;DHT22;50211;52.768;12.124;2022-09-28T03:58:12;9.00;99.90
64012;DHT22;50211;52.768;12.124;2022-09-28T04:00:37;9.10;99.90
64012;DHT22;50211;52.768;12.124;2022-09-28T04:03:03;9.10;99.90
64012;DHT22;50211;52.768;12.124;2022-09-28T04:05:29;9.10;99.90
64012;DHT22;50211;52.768;12.124;2022-09-28T04:07:54;9.10;99.90
64012;DHT22;50211;52.768;12.124;2022-09-28T04:10:22;9.10;99.90
64012;DHT22;50211;52.768;12.124;2022-09-28T04:12:48;9.10;99.90
64012;DHT22;50211;52.768;12.124;2022-09-28T04:15:14;9.10;99.90
64012;DHT22;50211;52.768;12.124;2022-09-28T04:17:39;9.10;99.90
64012;DHT22;50211;52.768;12.124;2022-09-28T04:20:05;9.10;99.90
64012;DHT22;50211;52.768;12.124;2022-09-28T04:22:31;9.10;99.90
64012;DHT22;50211;52.768;12.124;2022-09-28T04:24:57;9.10;99.90
64012;DHT22;50211;52.768;12.124;2022-09-28T04:27:22;9.20;99.90
64012;DHT22;50211;52.768;12.124;2022-09-28T04:30:07;9.20;99.90
64012;DHT22;50211;52.768;12.124;2022-09-28T04:32:33;9.20;99.90
64012;DHT22;50211;52.768;12.124;2022-09-28T04:34:59;9.20;99.90
64012;DHT22;50211;52.768;12.124;2022-09-28T04:37:27;9.10;99.90
64012;DHT22;50211;52.768;12.124;2022-09-28T04:39:55;9.10;99.90
64012;DHT22;50211;52.768;12.124;2022-09-28T04:42:21;9.10;99.90
64012;DHT22;50211;52.768;12.124;2022-09-28T04:44:46;9.10;99.90
64012;DHT22;50211;52.768;12.124;2022-09-28T04:47:11;9.10;99.90
64012;DHT22;50211;52.768;12.124;2022-09-28T04:49:37;9.00;99.90
64012;DHT22;50211;52.768;12.124;2022-09-28T04:52:04;9.10;99.90
64012;DHT22;50211;52.768;12.124;2022-09-28T04:54:30;9.10;99.90
64012;DHT22;50211;52.768;12.124;2022-09-28T04:56:57;9.10;99.90
64012;DHT22;50211;52.768;12.124;2022-09-28T04:59:22;9.10;99.90
64012;DHT22;50211;52.768;12.124;2022-09-28T05:01:50;9.10;99.90
64012;DHT22;50211;52.768;12.124;2022-09-28T05:04:15;9.10;99.90
64012;DHT22;50211;52.768;12.124;2022-09-28T05:06:41;9.10;99.90
64012;DHT22;50211;52.768;12.124;2022-09-28T05:09:07;9.10;99.90
64012;DHT22;50211;52.768;12.124;2022-09-28T05:11:33;9.10;99.90
64012;DHT22;50211;52.768;12.124;2022-09-28T05:14:01;9.10;99.90
64012;DHT22;50211;52.768;12.124;2022-09-28T05:16:27;9.20;99.90
64012;DHT22;50211;52.768;12.124;2022-09-28T05:18:55;9.20;99.90
64012;DHT22;50211;52.768;12.124;2022-09-28T05:21:22;9.10;99.90
64012;DHT22;50211;52.768;12.124;2022-09-28T05:23:49;9.10;99.90
64012;DHT22;50211;52.768;12.124;2022-09-28T05:26:15;9.10;99.90
64012;DHT22;50211;52.768;12.124;2022-09-28T05:28:41;9.10;99.90
64012;DHT22;50211;52.768;12.124;2022-09-28T05:31:08;9.00;99.90
64012;DHT22;50211;52.768;12.124;2022-09-28T05:33:34;8.90;99.90
64012;DHT22;50211;52.768;12.124;2022-09-28T05:36:00;8.80;99.90
64012;DHT22;50211;52.768;12.124;2022-09-28T05:38:28;8.70;99.90
64012;DHT22;50211;52.768;12.124;2022-09-28T05:40:56;8.70;99.90
64012;DHT22;50211;52.768;12.124;2022-09-28T05:43:22;8.70;99.90
64012;DHT22;50211;52.768;12.124;2022-09-28T05:45:48;8.70;99.90
64012;DHT22;50211;52.768;12.124;2022-09-28T05:48:13;8.80;99.90
64012;DHT22;50211;52.768;12.124;2022-09-28T05:50:41;8.70;99.90
64012;DHT22;50211;52.768;12.124;2022-09-28T05:53:08;8.70;99.90
64012;DHT22;50211;52.768;12.124;2022-09-28T05:55:37;8.80;99.90
64012;DHT22;50211;52.768;12.124;2022-09-28T05:58:04;8.90;99.90
64012;DHT22;50211;52.768;12.124;2022-09-28T06:00:31;9.00;99.90
64012;DHT22;50211;52.768;12.124;2022-09-28T06:02:58;9.00;99.90
64012;DHT22;50211;52.768;12.124;2022-09-28T06:05:25;8.90;99.90
64012;DHT22;50211;52.768;12.124;2022-09-28T06:07:51;8.90;99.90
64012;DHT22;50211;52.768;12.124;2022-09-28T06:10:17;8.90;99.90
64012;DHT22;50211;52.768;12.124;2022-09-28T06:12:42;8.90;99.90
64012;DHT22;50211;52.768;12.124;2022-09-28T06:15:09;8.90;99.90
64012;DHT22;50211;52.768;12.124;2022-09-28T06:17:36;8.80;99.90
64012;DHT22;50211;52.768;12.124;2022-09-28T06:20:04;8.80;99.90
64012;DHT22;50211;52.768;12.124;2022-09-28T06:22:29;8.70;99.90
64012;DHT22;50211;52.768;12.124;2022-09-28T06:24:55;8.80;99.90
64012;DHT22;50211;52.768;12.124;2022-09-28T06:27:20;8.80;99.90
64012;DHT22;50211;52.768;12.124;2022-09-28T06:29:48;8.90;99.90
64012;DHT22;50211;52.768;12.124;2022-09-28T06:32:16;9.00;99.90
64012;DHT22;50211;52.768;12.124;2022-09-28T06:34:43;9.10;99.90
64012;DHT22;50211;52.768;12.124;2022-09-28T06:37:09;9.10;99.90
64012;DHT22;50211;52.768;12.124;2022-09-28T06:39:37;9.30;99.90
64012;DHT22;50211;52.768;12.124;2022-09-28T06:42:05;9.30;99.90
64012;DHT22;50211;52.768;12.124;2022-09-28T06:44:30;9.30;99.90
64012;DHT22;50211;52.768;12.124;2022-09-28T06:46:56;9.30;99.90
64012;DHT22;50211;52.768;12.124;2022-09-28T06:49:22;9.40;99.90
64012;DHT22;50211;52.768;12.124;2022-09-28T06:51:50;9.50;99.90
64012;DHT22;50211;52.768;12.124;2022-09-28T06:54:18;9.50;99.90
64012;DHT22;50211;52.768;12.124;2022-09-28T06:56:45;9.60;99.90
64012;DHT22;50211;52.768;12.124;2022-09-28T06:59:11;9.70;99.90
64012;DHT22;50211;52.768;12.124;2022-09-28T07:01:39;9.70;99.90
64012;DHT22;50211;52.768;12.124;2022-09-28T07:04:06;9.80;99.90
64012;DHT22;50211;52.768;12.124;2022-09-28T07:06:34;9.90;99.90
64012;DHT22;50211;52.768;12.124;2022-09-28T07:09:02;10.10;99.90
64012;DHT22;50211;52.768;12.124;2022-09-28T07:11:35;10.20;99.90
64012;DHT22;50211;52.768;12.124;2022-09-28T07:14:04;10.30;99.90
64012;DHT22;50211;52.768;12.124;2022-09-28T07:16:29;10.40;99.90
64012;DHT22;50211;52.768;12.124;2022-09-28T07:18:57;10.50;99.90
64012;DHT22;50211;52.768;12.124;2022-09-28T07:21:22;10.40;99.90
64012;DHT22;50211;52.768;12.124;2022-09-28T07:23:50;10.40;99.90
64012;DHT22;50211;52.768;12.124;2022-09-28T07:26:18;10.40;99.90
64012;DHT22;50211;52.768;12.124;2022-09-28T07:28:46;10.40;99.90
64012;DHT22;50211;52.768;12.124;2022-09-28T07:31:13;10.40;99.90
64012;DHT22;50211;52.768;12.124;2022-09-28T07:33:41;10.30;99.90
64012;DHT22;50211;52.768;12.124;2022-09-28T07:36:06;10.30;99.90
64012;DHT22;50211;52.768;12.124;2022-09-28T07:38:34;10.20;99.90
64012;DHT22;50211;52.768;12.124;2022-09-28T07:41:02;10.40;99.90
64012;DHT22;50211;52.768;12.124;2022-09-28T07:43:38;10.60;99.90
64012;DHT22;50211;52.768;12.124;2022-09-28T07:46:04;10.80;99.90
64012;DHT22;50211;52.768;12.124;2022-09-28T07:48:33;10.90;99.90
64012;DHT22;50211;52.768;12.124;2022-09-28T07:51:02;11.10;99.90
64012;DHT22;50211;52.768;12.124;2022-09-28T07:53:28;11.40;99.90
64012;DHT22;50211;52.768;12.124;2022-09-28T07:55:57;11.40;99.90
64012;DHT22;50211;52.768;12.124;2022-09-28T07:58:26;11.60;99.90
64012;DHT22;50211;52.768;12.124;2022-09-28T08:00:54;11.70;99.90
64012;DHT22;50211;52.768;12.124;2022-09-28T08:03:19;12.00;99.90
64012;DHT22;50211;52.768;12.124;2022-09-28T08:05:47;12.10;99.90
64012;DHT22;50211;52.768;12.124;2022-09-28T08:08:13;12.30;99.90
64012;DHT22;50211;52.768;12.124;2022-09-28T08:10:41;12.50;99.90
64012;DHT22;50211;52.768;12.124;2022-09-28T08:13:09;12.50;99.90
64012;DHT22;50211;52.768;12.124;2022-09-28T08:15:34;12.60;99.90
64012;DHT22;50211;52.768;12.124;2022-09-28T08:18:03;12.40;99.90
64012;DHT22;50211;52.768;12.124;2022-09-28T08:20:29;12.20;99.90
64012;DHT22;50211;52.768;12.124;2022-09-28T08:23:13;12.10;99.90
64012;DHT22;50211;52.768;12.124;2022-09-28T08:25:39;12.00;99.90
64012;DHT22;50211;52.768;12.124;2022-09-28T08:28:05;12.00;99.90
64012;DHT22;50211;52.768;12.124;2022-09-28T08:30:31;12.00;99.90
64012;DHT22;50211;52.768;12.124;2022-09-28T08:32:57;11.80;99.90
64012;DHT22;50211;52.768;12.124;2022-09-28T08:35:23;11.80;99.90
64012;DHT22;50211;52.768;12.124;2022-09-28T08:37:51;11.60;99.90
64012;DHT22;50211;52.768;12.124;2022-09-28T08:40:22;11.60;99.90
64012;DHT22;50211;52.768;12.124;2022-09-28T08:42:55;11.50;99.90
64012;DHT22;50211;52.768;12.124;2022-09-28T08:45:26;11.40;99.90
64012;DHT22;50211;52.768;12.124;2022-09-28T08:48:00;11.50;99.90
64012;DHT22;50211;52.768;12.124;2022-09-28T08:50:53;11.80;99.90
64012;DHT22;50211;52.768;12.124;2022-09-28T08:56:04;12.70;99.90
64012;DHT22;50211;52.768;12.124;2022-09-28T08:58:38;13.20;99.90
64012;DHT22;50211;52.768;12.124;2022-09-28T09:01:07;13.70;99.90
64012;DHT22;50211;52.768;12.124;2022-09-28T09:03:38;14.00;99.90
64012;DHT22;50211;52.768;12.124;2022-09-28T09:06:20;13.90;99.90
64012;DHT22;50211;52.768;12.124;2022-09-28T09:15:02;14.40;99.90
64012;DHT22;50211;52.768;12.124;2022-09-28T09:18:01;14.10;99.90
64012;DHT22;50211;52.768;12.124;2022-09-28T09:20:47;14.40;99.90
64012;DHT22;50211;52.768;12.124;2022-09-28T09:23:37;14.50;99.90
64012;DHT22;50211;52.768;12.124;2022-09-28T09:26:16;14.50;99.90
64012;DHT22;50211;52.768;12.124;2022-09-28T09:32:04;14.10;99.90
64012;DHT22;50211;52.768;12.124;2022-09-28T09:35:05;13.80;99.90
64012;DHT22;50211;52.768;12.124;2022-09-28T09:37:57;13.50;99.90
64012;DHT22;50211;52.768;12.124;2022-09-28T09:41:00;13.70;99.90
64012;DHT22;50211;52.768;12.124;2022-09-28T09:43:56;13.90;99.90
64012;DHT22;50211;52.768;12.124;2022-09-28T09:46:50;14.00;99.90
64012;DHT22;50211;52.768;12.124;2022-09-28T09:52:02;13.70;99.90
64012;DHT22;50211;52.768;12.124;2022-09-28T09:54:45;13.60;99.90
64012;DHT22;50211;52.768;12.124;2022-09-28T09:57:18;13.50;99.90
64012;DHT22;50211;52.768;12.124;2022-09-28T09:59:44;13.60;99.90
64012;DHT22;50211;52.768;12.124;2022-09-28T10:02:22;13.80;99.90
64012;DHT22;50211;52.768;12.124;2022-09-28T10:04:52;14.10;99.90
64012;DHT22;50211;52.768;12.124;2022-09-28T10:07:25;14.30;99.90
64012;DHT22;50211;52.768;12.124;2022-09-28T10:09:56;14.40;99.90
64012;DHT22;50211;52.768;12.124;2022-09-28T10:12:23;14.20;99.90
64012;DHT22;50211;52.768;12.124;2022-09-28T10:14:48;13.90;99.90
64012;DHT22;50211;52.768;12.124;2022-09-28T10:17:17;13.80;99.90
64012;DHT22;50211;52.768;12.124;2022-09-28T10:19:44;13.70;99.90
64012;DHT22;50211;52.768;12.124;2022-09-28T10:22:16;13.70;99.90
64012;DHT22;50211;52.768;12.124;2022-09-28T10:24:46;13.60;99.90
64012;DHT22;50211;52.768;12.124;2022-09-28T10:27:18;13.50;99.90
64012;DHT22;50211;52.768;12.124;2022-09-28T10:30:11;13.40;99.90
64012;DHT22;50211;52.768;12.124;2022-09-28T10:32:41;13.10;99.90
64012;DHT22;50211;52.768;12.124;2022-09-28T10:37:59;12.50;99.90
64012;DHT22;50211;52.768;12.124;2022-09-28T10:40:38;12.40;99.90
64012;DHT22;50211;52.768;12.124;2022-09-28T10:43:14;12.10;99.90
64012;DHT22;50211;52.768;12.124;2022-09-28T10:45:41;12.00;99.90
64012;DHT22;50211;52.768;12.124;2022-09-28T10:48:20;12.00;99.90
64012;DHT22;50211;52.768;12.124;2022-09-28T10:51:02;11.90;99.90
64012;DHT22;50211;52.768;12.124;2022-09-28T10:53:27;12.00;99.90
64012;DHT22;50211;52.768;12.124;2022-09-28T10:56:04;11.80;99.90
64012;DHT22;50211;52.768;12.124;2022-09-28T10:58:36;11.70;99.90
64012;DHT22;50211;52.768;12.124;2022-09-28T11:01:09;11.80;99.90
64012;DHT22;50211;52.768;12.124;2022-09-28T11:03:55;11.90;99.90
64012;DHT22;50211;52.768;12.124;2022-09-28T11:06:27;11.90;99.90
64012;DHT22;50211;52.768;12.124;2022-09-28T11:08:58;11.70;99.90
64012;DHT22;50211;52.768;12.124;2022-09-28T11:11:24;11.80;99.90
64012;DHT22;50211;52.768;12.124;2022-09-28T11:13:55;12.00;99.90
64012;DHT22;50211;52.768;12.124;2022-09-28T11:16:25;12.20;99.90
64012;DHT22;50211;52.768;12.124;2022-09-28T11:18:51;12.40;99.90
64012;DHT22;50211;52.768;12.124;2022-09-28T11:21:21;12.60;99.90
64012;DHT22;50211;52.768;12.124;2022-09-28T11:24:20;12.70;99.90
64012;DHT22;50211;52.768;12.124;2022-09-28T11:26:50;12.70;99.90
64012;DHT22;50211;52.768;12.124;2022-09-28T11:29:36;12.80;99.90
64012;DHT22;50211;52.768;12.124;2022-09-28T11:32:04;13.00;99.90
64012;DHT22;50211;52.768;12.124;2022-09-28T11:34:36;12.90;99.90
64012;DHT22;50211;52.768;12.124;2022-09-28T11:37:33;12.70;99.90
64012;DHT22;50211;52.768;12.124;2022-09-28T11:42:52;13.00;99.90
64012;DHT22;50211;52.768;12.124;2022-09-28T11:45:40;13.10;99.90
64012;DHT22;50211;52.768;12.124;2022-09-28T11:48:14;13.10;99.90
64012;DHT22;50211;52.768;12.124;2022-09-28T11:51:03;13.20;99.90
64012;DHT22;50211;52.768;12.124;2022-09-28T11:56:17;13.00;99.90
64012;DHT22;50211;52.768;12.124;2022-09-28T11:58:58;13.10;99.90
64012;DHT22;50211;52.768;12.124;2022-09-28T12:06:42;13.20;99.90
64012;DHT22;50211;52.768;12.124;2022-09-28T12:09:16;13.40;99.90
64012;DHT22;50211;52.768;12.124;2022-09-28T12:11:48;13.60;99.90
64012;DHT22;50211;52.768;12.124;2022-09-28T12:14:31;13.50;99.90
64012;DHT22;50211;52.768;12.124;2022-09-28T12:20:09;13.70;99.90
64012;DHT22;50211;52.768;12.124;2022-09-28T12:22:52;13.90;99.90
64012;DHT22;50211;52.768;12.124;2022-09-28T12:25:20;13.80;99.90
64012;DHT22;50211;52.768;12.124;2022-09-28T12:28:00;13.70;99.90
64012;DHT22;50211;52.768;12.124;2022-09-28T12:30:32;13.80;99.90
64012;DHT22;50211;52.768;12.124;2022-09-28T12:33:07;14.00;99.90
64012;DHT22;50211;52.768;12.124;2022-09-28T12:35:43;14.10;99.90
64012;DHT22;50211;52.768;12.124;2022-09-28T12:43:54;14.00;99.90
64012;DHT22;50211;52.768;12.124;2022-09-28T12:46:31;13.80;99.90
64012;DHT22;50211;52.768;12.124;2022-09-28T12:51:51;13.40;99.90
64012;DHT22;50211;52.768;12.124;2022-09-28T12:54:28;13.20;99.90
64012;DHT22;50211;52.768;12.124;2022-09-28T12:57:31;13.00;99.90
64012;DHT22;50211;52.768;12.124;2022-09-28T13:00:06;12.90;99.90
64012;DHT22;50211;52.768;12.124;2022-09-28T13:13:24;12.40;99.90
64012;DHT22;50211;52.768;12.124;2022-09-28T13:16:01;12.30;99.90
64012;DHT22;50211;52.768;12.124;2022-09-28T13:19:00;12.30;99.90
64012;DHT22;50211;52.768;12.124;2022-09-28T13:21:56;12.30;99.90
64012;DHT22;50211;52.768;12.124;2022-09-28T13:24:27;12.40;99.90
64012;DHT22;50211;52.768;12.124;2022-09-28T13:27:00;12.30;99.90
64012;DHT22;50211;52.768;12.124;2022-09-28T13:29:29;12.40;99.90
64012;DHT22;50211;52.768;12.124;2022-09-28T13:31:56;12.30;99.90
64012;DHT22;50211;52.768;12.124;2022-09-28T13:34:28;12.40;99.90
64012;DHT22;50211;52.768;12.124;2022-09-28T13:42:11;12.60;99.90
64012;DHT22;50211;52.768;12.124;2022-09-28T13:51:03;12.50;99.90
64012;DHT22;50211;52.768;12.124;2022-09-28T13:53:35;12.50;99.90
64012;DHT22;50211;52.768;12.124;2022-09-28T13:59:21;12.50;99.90
64012;DHT22;50211;52.768;12.124;2022-09-28T14:01:55;12.50;99.90
64012;DHT22;50211;52.768;12.124;2022-09-28T14:04:59;12.30;99.90
64012;DHT22;50211;52.768;12.124;2022-09-28T14:07:53;12.30;99.90
64012;DHT22;50211;52.768;12.124;2022-09-28T14:12:50;12.20;99.90
64012;DHT22;50211;52.768;12.124;2022-09-28T14:15:41;12.20;99.90
64012;DHT22;50211;52.768;12.124;2022-09-28T14:21:03;11.90;99.90
64012;DHT22;50211;52.768;12.124;2022-09-28T14:23:56;11.90;99.90
64012;DHT22;50211;52.768;12.124;2022-09-28T14:27:02;11.90;99.90
64012;DHT22;50211;52.768;12.124;2022-09-28T14:29:35;11.80;99.90
64012;DHT22;50211;52.768;12.124;2022-09-28T14:32:21;11.70;99.90
64012;DHT22;50211;52.768;12.124;2022-09-28T14:35:16;11.60;99.90
64012;DHT22;50211;52.768;12.124;2022-09-28T14:37:47;11.50;99.90
64012;DHT22;50211;52.768;12.124;2022-09-28T14:41:02;11.50;99.90
64012;DHT22;50211;52.768;12.124;2022-09-28T14:53:57;11.10;99.90
64012;DHT22;50211;52.768;12.124;2022-09-28T14:56:26;11.00;99.90
64012;DHT22;50211;52.768;12.124;2022-09-28T14:58:56;10.80;99.90
64012;DHT22;50211;52.768;12.124;2022-09-28T15:01:23;10.80;99.90
64012;DHT22;50211;52.768;12.124;2022-09-28T15:03:58;10.80;99.90
64012;DHT22;50211;52.768;12.124;2022-09-28T15:06:25;10.70;99.90
64012;DHT22;50211;52.768;12.124;2022-09-28T15:08:53;10.70;99.90
64012;DHT22;50211;52.768;12.124;2022-09-28T15:11:21;10.70;99.90
64012;DHT22;50211;52.768;12.124;2022-09-28T15:13:49;10.70;99.90
64012;DHT22;50211;52.768;12.124;2022-09-28T15:16:22;10.70;99.90
64012;DHT22;50211;52.768;12.124;2022-09-28T15:21:49;10.50;99.90
64012;DHT22;50211;52.768;12.124;2022-09-28T15:24:30;10.40;99.90
64012;DHT22;50211;52.768;12.124;2022-09-28T15:26:57;10.30;99.90
64012;DHT22;50211;52.768;12.124;2022-09-28T15:29:22;10.30;99.90
64012;DHT22;50211;52.768;12.124;2022-09-28T15:31:50;10.20;99.90
64012;DHT22;50211;52.768;12.124;2022-09-28T15:34:34;10.30;99.90
64012;DHT22;50211;52.768;12.124;2022-09-28T15:37:28;10.10;99.90
64012;DHT22;50211;52.768;12.124;2022-09-28T15:39:55;10.20;99.90
64012;DHT22;50211;52.768;12.124;2022-09-28T15:42:22;10.20;99.90
64012;DHT22;50211;52.768;12.124;2022-09-28T15:45:03;10.30;99.90
64012;DHT22;50211;52.768;12.124;2022-09-28T15:47:32;10.20;99.90
64012;DHT22;50211;52.768;12.124;2022-09-28T15:50:21;10.20;99.90
64012;DHT22;50211;52.768;12.124;2022-09-28T15:52:53;10.20;99.90
64012;DHT22;50211;52.768;12.124;2022-09-28T15:55:32;10.20;99.90
64012;DHT22;50211;52.768;12.124;2022-09-28T15:58:13;10.20;99.90
64012;DHT22;50211;52.768;12.124;2022-09-28T16:00:40;10.20;99.90
64012;DHT22;50211;52.768;12.124;2022-09-28T16:08:03;10.00;99.90
64012;DHT22;50211;52.768;12.124;2022-09-28T16:10:31;10.10;99.90
64012;DHT22;50211;52.768;12.124;2022-09-28T16:13:09;10.10;99.90
64012;DHT22;50211;52.768;12.124;2022-09-28T16:15:37;10.10;99.90
64012;DHT22;50211;52.768;12.124;2022-09-28T16:20:38;9.90;99.90
64012;DHT22;50211;52.768;12.124;2022-09-28T16:23:22;9.80;99.90
64012;DHT22;50211;52.768;12.124;2022-09-28T16:26:08;9.90;99.90
64012;DHT22;50211;52.768;12.124;2022-09-28T16:31:23;9.80;99.90
64012;DHT22;50211;52.768;12.124;2022-09-28T16:33:52;9.80;99.90
64012;DHT22;50211;52.768;12.124;2022-09-28T16:36:19;9.90;99.90
64012;DHT22;50211;52.768;12.124;2022-09-28T16:38:46;9.90;99.90
64012;DHT22;50211;52.768;12.124;2022-09-28T16:41:18;9.90;99.90
64012;DHT22;50211;52.768;12.124;2022-09-28T16:43:47;9.90;99.90
64012;DHT22;50211;52.768;12.124;2022-09-28T16:46:16;9.90;99.90
64012;DHT22;50211;52.768;12.124;2022-09-28T16:48:44;9.90;99.90
64012;DHT22;50211;52.768;12.124;2022-09-28T16:51:13;9.90;99.90
64012;DHT22;50211;52.768;12.124;2022-09-28T16:53:41;9.90;99.90
64012;DHT22;50211;52.768;12.124;2022-09-28T16:56:26;9.80;99.90
64012;DHT22;50211;52.768;12.124;2022-09-28T16:58:53;9.80;99.90
64012;DHT22;50211;52.768;12.124;2022-09-28T17:01:21;9.60;99.90
64012;DHT22;50211;52.768;12.124;2022-09-28T17:03:50;9.60;99.90
64012;DHT22;50211;52.768;12.124;2022-09-28T17:06:19;9.60;99.90
64012;DHT22;50211;52.768;12.124;2022-09-28T17:08:46;9.70;99.90
64012;DHT22;50211;52.768;12.124;2022-09-28T17:11:16;9.70;99.90
64012;DHT22;50211;52.768;12.124;2022-09-28T17:13:42;9.60;99.90
64012;DHT22;50211;52.768;12.124;2022-09-28T17:16:15;9.50;99.90
64012;DHT22;50211;52.768;12.124;2022-09-28T17:18:42;9.50;99.90
64012;DHT22;50211;52.768;12.124;2022-09-28T17:21:13;9.40;99.90
64012;DHT22;50211;52.768;12.124;2022-09-28T17:23:41;9.40;99.90
64012;DHT22;50211;52.768;12.124;2022-09-28T17:26:26;9.40;99.90
64012;DHT22;50211;52.768;12.124;2022-09-28T17:28:55;9.40;99.90
64012;DHT22;50211;52.768;12.124;2022-09-28T17:31:22;9.40;99.90
64012;DHT22;50211;52.768;12.124;2022-09-28T17:33:50;9.30;99.90
64012;DHT22;50211;52.768;12.124;2022-09-28T17:36:17;9.30;99.90
64012;DHT22;50211;52.768;12.124;2022-09-28T17:38:44;9.30;99.90
64012;DHT22;50211;52.768;12.124;2022-09-28T17:41:12;9.40;99.90
64012;DHT22;50211;52.768;12.124;2022-09-28T17:43:38;9.40;99.90
64012;DHT22;50211;52.768;12.124;2022-09-28T17:46:17;9.30;99.90